Sugar Bush, Minnesota
Current Conditions -  °F | °C
As of 5:33 PM on Monday 20 Oct 2014 (Local Time) from KBJI Reporting Station
Clear Clear  
Wind Chill: 48°   Ceiling: Unl
Heat Index: 50°   Visibility: 10mi
Dew Point: 38°   Wind: 6mph
Humidity: 65%   Direction: 30°NNE
Pressure: 30.05"   Gusts: NA
Location:  47.5271°N, 94.7611°W
Report Text: KBJI 202233Z AUTO 03005KT 10SM CLR 10/04 A3005 RMK AO2 T00990035
Loading
Personal Weather Stations






























Interactive Weather Map New forecast layout! Learn more

10-Day Weather Forecast

Advertisements
Track Severe Weather on mobile